sensor_id;sensor_type;location;lat;lon;timestamp;pressure;altitude;pressure_sealevel;temperature
27715;BMP280;16051;53.024;8.630;2023-04-15T00:00:07;100986.38;;;7.79
27715;BMP280;16051;53.024;8.630;2023-04-15T00:04:10;100991.97;;;7.75
27715;BMP280;16051;53.024;8.630;2023-04-15T00:08:45;100987.06;;;7.70
27715;BMP280;16051;53.024;8.630;2023-04-15T00:12:48;100985.06;;;7.71
27715;BMP280;16051;53.024;8.630;2023-04-15T00:16:52;100982.66;;;7.73
27715;BMP280;16051;53.024;8.630;2023-04-15T00:20:55;100980.09;;;7.78
27715;BMP280;16051;53.024;8.630;2023-04-15T00:24:58;100980.88;;;7.79
27715;BMP280;16051;53.024;8.630;2023-04-15T00:29:00;100976.69;;;7.74
27715;BMP280;16051;53.024;8.630;2023-04-15T00:33:09;100978.88;;;7.79
27715;BMP280;16051;53.024;8.630;2023-04-15T00:37:12;100977.03;;;7.76
27715;BMP280;16051;53.024;8.630;2023-04-15T00:41:14;100979.00;;;7.76
27715;BMP280;16051;53.024;8.630;2023-04-15T00:45:16;100973.94;;;7.74
27715;BMP280;16051;53.024;8.630;2023-04-15T00:49:20;100972.50;;;7.82
27715;BMP280;16051;53.024;8.630;2023-04-15T00:53:22;100970.06;;;7.84
27715;BMP280;16051;53.024;8.630;2023-04-15T00:57:58;100970.56;;;7.70
27715;BMP280;16051;53.024;8.630;2023-04-15T01:02:00;100960.31;;;7.71
27715;BMP280;16051;53.024;8.630;2023-04-15T01:06:04;100955.03;;;7.76
27715;BMP280;16051;53.024;8.630;2023-04-15T01:10:08;100948.00;;;7.75
27715;BMP280;16051;53.024;8.630;2023-04-15T01:14:10;100960.00;;;7.69
27715;BMP280;16051;53.024;8.630;2023-04-15T01:18:47;100948.38;;;7.65
27715;BMP280;16051;53.024;8.630;2023-04-15T01:22:51;100950.41;;;7.52
27715;BMP280;16051;53.024;8.630;2023-04-15T01:26:56;100950.41;;;7.52
27715;BMP280;16051;53.024;8.630;2023-04-15T01:31:10;100949.50;;;7.55
27715;BMP280;16051;53.024;8.630;2023-04-15T01:35:13;100960.03;;;7.56
27715;BMP280;16051;53.024;8.630;2023-04-15T01:39:15;100957.00;;;7.41
27715;BMP280;16051;53.024;8.630;2023-04-15T01:43:45;100950.41;;;7.39
27715;BMP280;16051;53.024;8.630;2023-04-15T01:47:47;100953.81;;;7.43
27715;BMP280;16051;53.024;8.630;2023-04-15T01:51:50;100954.25;;;7.41
27715;BMP280;16051;53.024;8.630;2023-04-15T01:55:52;100954.47;;;7.47
27715;BMP280;16051;53.024;8.630;2023-04-15T01:59:55;100958.22;;;7.40
27715;BMP280;16051;53.024;8.630;2023-04-15T02:03:58;100955.03;;;7.42
27715;BMP280;16051;53.024;8.630;2023-04-15T02:08:00;100955.84;;;7.30
27715;BMP280;16051;53.024;8.630;2023-04-15T02:12:03;100955.25;;;7.35
27715;BMP280;16051;53.024;8.630;2023-04-15T02:16:16;100955.38;;;7.31
27715;BMP280;16051;53.024;8.630;2023-04-15T02:20:19;100954.72;;;7.27
27715;BMP280;16051;53.024;8.630;2023-04-15T02:24:22;100960.56;;;7.17
27715;BMP280;16051;53.024;8.630;2023-04-15T02:28:24;100950.03;;;7.15
27715;BMP280;16051;53.024;8.630;2023-04-15T02:32:28;100953.56;;;7.16
27715;BMP280;16051;53.024;8.630;2023-04-15T02:36:31;100954.53;;;7.22
27715;BMP280;16051;53.024;8.630;2023-04-15T02:40:34;100960.38;;;7.11
27715;BMP280;16051;53.024;8.630;2023-04-15T02:44:36;100958.72;;;7.14
27715;BMP280;16051;53.024;8.630;2023-04-15T02:48:39;100965.44;;;7.00
27715;BMP280;16051;53.024;8.630;2023-04-15T02:52:42;100965.00;;;7.02
27715;BMP280;16051;53.024;8.630;2023-04-15T02:56:45;100968.72;;;6.95
27715;BMP280;16051;53.024;8.630;2023-04-15T03:00:47;100965.44;;;7.00
27715;BMP280;16051;53.024;8.630;2023-04-15T03:04:55;100956.97;;;6.94
27715;BMP280;16051;53.024;8.630;2023-04-15T03:08:57;100958.84;;;6.98
27715;BMP280;16051;53.024;8.630;2023-04-15T03:13:00;100951.78;;;7.09
27715;BMP280;16051;53.024;8.630;2023-04-15T03:17:30;100960.03;;;7.09
27715;BMP280;16051;53.024;8.630;2023-04-15T03:21:33;100957.19;;;7.00
27715;BMP280;16051;53.024;8.630;2023-04-15T03:25:35;100956.09;;;6.98
27715;BMP280;16051;53.024;8.630;2023-04-15T03:29:38;100948.41;;;6.92
27715;BMP280;16051;53.024;8.630;2023-04-15T03:33:41;100951.91;;;7.06
27715;BMP280;16051;53.024;8.630;2023-04-15T03:37:44;100953.31;;;7.10
27715;BMP280;16051;53.024;8.630;2023-04-15T03:41:48;100949.84;;;6.97
27715;BMP280;16051;53.024;8.630;2023-04-15T03:45:50;100952.66;;;7.06
27715;BMP280;16051;53.024;8.630;2023-04-15T03:49:53;100939.06;;;7.03
27715;BMP280;16051;53.024;8.630;2023-04-15T03:54:31;100951.66;;;7.13
27715;BMP280;16051;53.024;8.630;2023-04-15T03:58:33;100953.09;;;7.17
27715;BMP280;16051;53.024;8.630;2023-04-15T04:02:35;100950.81;;;7.16
27715;BMP280;16051;53.024;8.630;2023-04-15T04:06:38;100948.50;;;7.14
27715;BMP280;16051;53.024;8.630;2023-04-15T04:10:41;100951.13;;;7.18
27715;BMP280;16051;53.024;8.630;2023-04-15T04:15:14;100948.91;;;7.13
27715;BMP280;16051;53.024;8.630;2023-04-15T04:19:16;100951.13;;;7.18
27715;BMP280;16051;53.024;8.630;2023-04-15T04:23:19;100952.09;;;7.24
27715;BMP280;16051;53.024;8.630;2023-04-15T04:27:23;100960.13;;;7.18
27715;BMP280;16051;53.024;8.630;2023-04-15T04:31:25;100963.31;;;7.29
27715;BMP280;16051;53.024;8.630;2023-04-15T04:35:27;100966.38;;;7.31
27715;BMP280;16051;53.024;8.630;2023-04-15T04:39:29;100957.34;;;7.31
27715;BMP280;16051;53.024;8.630;2023-04-15T04:43:32;100968.88;;;7.38
27715;BMP280;16051;53.024;8.630;2023-04-15T04:47:34;100961.88;;;7.37
27715;BMP280;16051;53.024;8.630;2023-04-15T04:51:37;100961.09;;;7.37
27715;BMP280;16051;53.024;8.630;2023-04-15T04:55:39;100962.94;;;7.40
27715;BMP280;16051;53.024;8.630;2023-04-15T04:59:42;100968.63;;;7.46
27715;BMP280;16051;53.024;8.630;2023-04-15T05:03:44;100973.72;;;7.47
27715;BMP280;16051;53.024;8.630;2023-04-15T05:07:47;100969.81;;;7.57
27715;BMP280;16051;53.024;8.630;2023-04-15T05:11:50;100967.72;;;7.61
27715;BMP280;16051;53.024;8.630;2023-04-15T05:15:53;100965.53;;;7.56
27715;BMP280;16051;53.024;8.630;2023-04-15T05:19:55;100978.28;;;7.63
27715;BMP280;16051;53.024;8.630;2023-04-15T05:23:57;100973.16;;;7.52
27715;BMP280;16051;53.024;8.630;2023-04-15T05:27:59;100979.25;;;7.69
27715;BMP280;16051;53.024;8.630;2023-04-15T05:32:04;100976.81;;;7.71
27715;BMP280;16051;53.024;8.630;2023-04-15T05:36:06;100985.19;;;7.67
27715;BMP280;16051;53.024;8.630;2023-04-15T05:40:09;100986.66;;;7.59
27715;BMP280;16051;53.024;8.630;2023-04-15T05:44:41;100999.41;;;7.66
27715;BMP280;16051;53.024;8.630;2023-04-15T05:48:44;100985.97;;;7.68
27715;BMP280;16051;53.024;8.630;2023-04-15T05:52:46;100995.19;;;7.74
27715;BMP280;16051;53.024;8.630;2023-04-15T05:56:56;100995.44;;;7.67
27715;BMP280;16051;53.024;8.630;2023-04-15T06:00:58;100986.06;;;7.64
27715;BMP280;16051;53.024;8.630;2023-04-15T06:05:02;100999.81;;;7.77
27715;BMP280;16051;53.024;8.630;2023-04-15T06:09:09;101003.94;;;7.81
27715;BMP280;16051;53.024;8.630;2023-04-15T06:13:11;101006.81;;;7.78
27715;BMP280;16051;53.024;8.630;2023-04-15T06:17:13;101004.72;;;7.82
27715;BMP280;16051;53.024;8.630;2023-04-15T06:21:19;101006.56;;;7.85
27715;BMP280;16051;53.024;8.630;2023-04-15T06:25:21;101015.41;;;7.80
27715;BMP280;16051;53.024;8.630;2023-04-15T06:29:23;101018.44;;;7.95
27715;BMP280;16051;53.024;8.630;2023-04-15T06:33:25;101024.78;;;8.04
27715;BMP280;16051;53.024;8.630;2023-04-15T06:37:40;101026.56;;;7.98
27715;BMP280;16051;53.024;8.630;2023-04-15T06:41:43;101027.91;;;7.93
27715;BMP280;16051;53.024;8.630;2023-04-15T06:45:45;101034.16;;;7.94
27715;BMP280;16051;53.024;8.630;2023-04-15T06:49:47;101025.13;;;8.06
27715;BMP280;16051;53.024;8.630;2023-04-15T06:54:07;101024.84;;;7.91
27715;BMP280;16051;53.024;8.630;2023-04-15T06:58:09;101035.34;;;8.06
27715;BMP280;16051;53.024;8.630;2023-04-15T07:02:12;101036.66;;;8.01
27715;BMP280;16051;53.024;8.630;2023-04-15T07:06:26;101035.59;;;7.99
27715;BMP280;16051;53.024;8.630;2023-04-15T07:10:31;101035.53;;;8.11
27715;BMP280;16051;53.024;8.630;2023-04-15T07:14:33;101033.16;;;8.22
27715;BMP280;16051;53.024;8.630;2023-04-15T07:18:36;101035.91;;;8.22
27715;BMP280;16051;53.024;8.630;2023-04-15T07:22:39;101041.72;;;8.37
27715;BMP280;16051;53.024;8.630;2023-04-15T07:27:12;101038.41;;;8.42
27715;BMP280;16051;53.024;8.630;2023-04-15T07:31:22;101039.75;;;8.37
27715;BMP280;16051;53.024;8.630;2023-04-15T07:35:25;101048.94;;;8.44
27715;BMP280;16051;53.024;8.630;2023-04-15T07:39:29;101043.97;;;8.51
27715;BMP280;16051;53.024;8.630;2023-04-15T07:43:35;101041.06;;;8.55
27715;BMP280;16051;53.024;8.630;2023-04-15T07:47:38;101039.72;;;8.59
27715;BMP280;16051;53.024;8.630;2023-04-15T07:51:40;101044.81;;;8.61
27715;BMP280;16051;53.024;8.630;2023-04-15T07:55:42;101044.47;;;8.59
27715;BMP280;16051;53.024;8.630;2023-04-15T07:59:47;101044.41;;;8.71
27715;BMP280;16051;53.024;8.630;2023-04-15T08:03:50;101055.72;;;8.73
27715;BMP280;16051;53.024;8.630;2023-04-15T08:07:52;101062.72;;;8.65
27715;BMP280;16051;53.024;8.630;2023-04-15T08:11:54;101049.56;;;8.69
27715;BMP280;16051;53.024;8.630;2023-04-15T08:16:19;101056.81;;;8.76
27715;BMP280;16051;53.024;8.630;2023-04-15T08:20:22;101051.66;;;8.87
27715;BMP280;16051;53.024;8.630;2023-04-15T08:24:25;101062.25;;;8.88
27715;BMP280;16051;53.024;8.630;2023-04-15T08:28:27;101059.47;;;8.88
27715;BMP280;16051;53.024;8.630;2023-04-15T08:32:30;101063.31;;;8.91
27715;BMP280;16051;53.024;8.630;2023-04-15T08:36:47;101056.41;;;8.86
27715;BMP280;16051;53.024;8.630;2023-04-15T08:40:49;101064.84;;;8.92
27715;BMP280;16051;53.024;8.630;2023-04-15T08:44:53;101062.41;;;8.94
27715;BMP280;16051;53.024;8.630;2023-04-15T08:49:20;101050.63;;;8.94
27715;BMP280;16051;53.024;8.630;2023-04-15T08:53:23;101054.84;;;9.07
27715;BMP280;16051;53.024;8.630;2023-04-15T08:57:27;101051.03;;;9.14
27715;BMP280;16051;53.024;8.630;2023-04-15T09:01:40;101054.56;;;9.14
27715;BMP280;16051;53.024;8.630;2023-04-15T09:05:43;101069.84;;;9.15
27715;BMP280;16051;53.024;8.630;2023-04-15T09:09:47;101064.19;;;9.19
27715;BMP280;16051;53.024;8.630;2023-04-15T09:13:50;101075.38;;;9.15
27715;BMP280;16051;53.024;8.630;2023-04-15T09:17:52;101071.88;;;9.24
27715;BMP280;16051;53.024;8.630;2023-04-15T09:22:03;101073.06;;;9.14
27715;BMP280;16051;53.024;8.630;2023-04-15T09:26:06;101073.06;;;9.14
27715;BMP280;16051;53.024;8.630;2023-04-15T09:30:10;101082.91;;;9.24
27715;BMP280;16051;53.024;8.630;2023-04-15T09:34:12;101084.25;;;9.19
27715;BMP280;16051;53.024;8.630;2023-04-15T09:38:16;101099.88;;;9.13
27715;BMP280;16051;53.024;8.630;2023-04-15T09:42:18;101099.88;;;9.13
27715;BMP280;16051;53.024;8.630;2023-04-15T09:46:42;101103.53;;;9.10
27715;BMP280;16051;53.024;8.630;2023-04-15T09:50:44;101102.75;;;9.10
27715;BMP280;16051;53.024;8.630;2023-04-15T09:54:52;101109.59;;;9.05
27715;BMP280;16051;53.024;8.630;2023-04-15T09:58:56;101117.72;;;9.00
27715;BMP280;16051;53.024;8.630;2023-04-15T10:02:58;101123.34;;;8.96
27715;BMP280;16051;53.024;8.630;2023-04-15T10:07:02;101127.88;;;8.90
27715;BMP280;16051;53.024;8.630;2023-04-15T10:11:06;101119.56;;;9.03
27715;BMP280;16051;53.024;8.630;2023-04-15T10:15:15;101118.34;;;9.04
27715;BMP280;16051;53.024;8.630;2023-04-15T10:19:24;101116.22;;;9.08
27715;BMP280;16051;53.024;8.630;2023-04-15T10:23:39;101121.88;;;9.04
27715;BMP280;16051;53.024;8.630;2023-04-15T10:27:44;101127.06;;;9.02
